Time;durP1;ratioP1;P1;durP2;ratioP2;P2;SDS_P1;SDS_P2;PMS_P1;PMS_P2;Temp;Humidity;BMP_temperature;BMP_pressure;BME280_temperature;BME280_humidity;BME280_pressure;Samples;Min_cycle;Max_cycle;Signal;HPM_P1;HPM_P2
2022/09/26 00:01:45;;;;;;;6.03;3.55;;;16.40;99.90;;;16.76;74.01;100768.41;4825017;29;20125;-69
2022/09/26 00:04:20;;;;;;;8.57;3.35;;;16.40;99.90;;;16.74;73.88;100756.06;4824651;29;20062;-69
2022/09/26 00:06:55;;;;;;;5.15;3.67;;;16.30;99.90;;;16.72;73.81;100756.09;4824834;29;20083;-69
2022/09/26 00:09:25;;;;;;;9.82;3.97;;;16.30;99.90;;;16.72;74.01;100755.22;4824596;29;20130;-69
2022/09/26 00:11:54;;;;;;;6.20;3.63;;;16.30;99.90;;;16.68;73.93;100750.91;4824582;29;20049;-69
2022/09/26 00:14:26;;;;;;;7.97;4.07;;;16.20;99.90;;;16.57;74.10;100743.19;4824746;29;20374;-69
2022/09/26 00:16:55;;;;;;;6.82;3.17;;;16.20;99.90;;;16.59;74.18;100738.69;4824861;29;20167;-69
2022/09/26 00:19:24;;;;;;;5.75;3.60;;;16.10;99.90;;;16.61;73.93;100735.97;4824200;29;20533;-69
2022/09/26 00:21:53;;;;;;;6.22;3.15;;;16.20;99.90;;;16.60;73.51;100719.09;4824703;29;20100;-69
2022/09/26 00:24:22;;;;;;;7.22;3.33;;;16.20;99.90;;;16.12;73.02;100644.00;4824306;29;20126;-69
2022/09/26 00:26:50;;;;;;;9.93;3.50;;;16.20;99.90;;;16.47;73.50;100701.69;4824405;29;20050;-69
2022/09/26 00:29:18;;;;;;;8.60;3.45;;;16.10;99.90;;;16.38;73.29;100685.91;4838239;29;20058;-69
2022/09/26 00:31:47;;;;;;;6.40;3.83;;;16.00;99.90;;;15.96;73.44;100612.53;4824099;29;20062;-69
2022/09/26 00:34:18;;;;;;;5.93;3.50;;;16.10;99.90;;;16.37;73.77;100694.88;4824353;29;20074;-69
2022/09/26 00:36:49;;;;;;;7.47;3.35;;;16.00;99.90;;;16.17;73.72;100650.09;4824711;29;20061;-69
2022/09/26 00:39:18;;;;;;;8.05;3.65;;;16.00;99.90;;;16.39;73.72;100682.34;4838204;29;20408;-69
2022/09/26 00:41:46;;;;;;;6.45;3.63;;;16.00;99.90;;;16.40;73.67;100680.53;4837806;29;20424;-69
2022/09/26 00:44:46;;;;;;;6.95;3.58;;;16.00;99.90;;;16.34;73.72;100665.56;4824256;29;20061;-69
2022/09/26 00:47:40;;;;;;;8.35;4.47;;;16.00;99.90;;;16.35;73.84;100656.66;4823961;29;20046;-69
2022/09/26 00:50:18;;;;;;;8.48;5.53;;;16.00;99.90;;;16.34;73.66;100657.56;4824439;29;20050;-69
2022/09/26 00:52:52;;;;;;;8.20;5.75;;;16.00;99.90;;;16.35;73.67;100664.66;4824602;29;20505;-69
2022/09/26 00:55:29;;;;;;;13.35;6.15;;;16.00;99.90;;;16.36;73.78;100650.38;4824308;29;20053;-69
2022/09/26 00:58:03;;;;;;;8.25;5.43;;;16.00;99.90;;;16.25;74.32;100636.50;4824094;29;20462;-69
2022/09/26 01:00:31;;;;;;;12.98;6.10;;;15.90;99.90;;;16.14;74.60;100607.47;4837906;29;20472;-69
2022/09/26 01:03:02;;;;;;;8.98;5.78;;;15.90;99.90;;;16.22;74.96;100620.56;4837788;29;20047;-69
2022/09/26 01:05:32;;;;;;;11.18;5.30;;;15.90;99.90;;;16.24;74.96;100610.72;4823733;29;20062;-70
2022/09/26 01:08:02;;;;;;;7.00;4.95;;;15.90;99.90;;;16.25;74.66;100617.81;4823814;29;20061;-69
2022/09/26 01:10:33;;;;;;;10.88;5.20;;;15.80;99.90;;;16.24;74.67;100597.38;4823921;29;20061;-69
2022/09/26 01:13:02;;;;;;;8.48;5.35;;;15.90;99.90;;;16.23;74.39;100590.31;4822411;29;20054;-69
2022/09/26 01:15:31;;;;;;;9.57;4.80;;;15.80;99.90;;;16.23;74.46;100574.31;4823855;29;20049;-69
2022/09/26 01:17:59;;;;;;;11.10;5.72;;;15.90;99.90;;;15.72;75.87;100563.44;4822625;29;20050;-69
2022/09/26 01:20:35;;;;;;;9.73;5.20;;;15.50;99.90;;;15.75;76.24;100565.16;4837848;29;20446;-69
2022/09/26 01:23:56;;;;;;;8.13;4.40;;;15.40;99.90;;;15.81;76.18;100552.53;4823957;29;20046;-70
2022/09/26 01:27:03;;;;;;;10.73;5.45;;;15.50;99.90;;;15.83;75.55;100547.97;4824185;29;20405;-69
2022/09/26 01:29:59;;;;;;;8.68;5.40;;;15.50;99.90;;;15.74;75.39;100534.94;4823829;29;20054;-69
2022/09/26 01:33:12;;;;;;;8.23;4.93;;;15.40;99.90;;;15.68;75.50;100523.63;4837680;29;20494;-69
2022/09/26 01:35:58;;;;;;;10.60;4.78;;;15.40;99.90;;;15.64;75.53;100525.47;4837748;29;20158;-69
2022/09/26 01:38:39;;;;;;;7.00;4.60;;;15.30;99.90;;;15.60;75.35;100531.81;4837607;29;20050;-69
2022/09/26 01:41:21;;;;;;;;;;;15.30;99.90;;;15.55;75.57;100530.22;4838076;29;20058;-69
2022/09/26 01:43:57;;;;;;;9.55;5.13;;;15.20;99.90;;;15.59;75.63;100521.22;4823738;29;20019;-69
2022/09/26 01:46:35;;;;;;;5.55;4.90;;;15.20;99.90;;;14.90;75.28;100391.81;4823391;29;20050;-69
2022/09/26 01:49:13;;;;;;;11.48;5.30;;;15.30;99.90;;;15.63;75.56;100522.88;4822292;29;20050;-69
2022/09/26 01:51:49;;;;;;;9.60;6.25;;;15.30;99.90;;;15.65;75.27;100521.03;4823262;29;20554;-70
2022/09/26 01:54:23;;;;;;;14.85;6.68;;;15.30;99.90;;;15.70;74.97;100509.28;4839658;29;20106;-70
2022/09/26 01:56:54;;;;;;;12.20;7.35;;;15.30;99.90;;;15.71;74.61;100505.72;4840752;29;20054;-69
2022/09/26 01:59:27;;;;;;;10.88;6.40;;;15.40;99.90;;;15.71;74.37;100487.06;4840668;29;20080;-69
2022/09/26 02:02:04;;;;;;;11.02;5.30;;;15.40;99.90;;;15.69;74.06;100493.34;4840729;29;20077;-69
2022/09/26 02:04:37;;;;;;;6.32;4.35;;;15.40;99.90;;;15.69;73.67;100488.00;4841132;29;20061;-69
2022/09/26 02:07:12;;;;;;;6.75;4.03;;;15.40;99.90;;;15.75;73.52;100483.38;4826590;29;20050;-70
2022/09/26 02:09:45;;;;;;;9.50;4.65;;;15.40;99.90;;;15.67;73.26;100474.75;4840623;29;20059;-69
2022/09/26 02:12:19;;;;;;;11.35;3.90;;;15.40;99.90;;;15.66;72.77;100462.31;4826748;29;20489;-69
2022/09/26 02:14:51;;;;;;;8.60;3.72;;;15.30;99.90;;;15.68;72.41;100459.63;4840628;29;20080;-71
2022/09/26 02:17:26;;;;;;;12.70;4.88;;;15.40;99.90;;;15.57;71.99;100451.06;4826780;29;20062;-70
2022/09/26 02:19:59;;;;;;;4.55;3.42;;;15.30;99.90;;;15.53;71.68;100458.28;4840428;29;20155;-69
2022/09/26 02:22:33;;;;;;;8.02;3.83;;;15.20;99.90;;;15.53;71.81;100450.28;4840428;29;20107;-69
2022/09/26 02:25:03;;;;;;;10.75;4.00;;;15.20;99.90;;;15.63;71.48;100453.53;4826362;29;20065;-69
2022/09/26 02:27:32;;;;;;;6.32;3.90;;;15.30;99.90;;;15.60;71.19;100442.97;4840294;29;20050;-69
2022/09/26 02:30:00;;;;;;;9.90;4.57;;;15.30;99.90;;;15.62;70.93;100452.66;4840458;29;20065;-69
2022/09/26 02:32:32;;;;;;;11.10;4.18;;;15.30;99.90;;;15.58;70.99;100439.50;4824675;29;20107;-69
2022/09/26 02:35:52;;;;;;;7.53;4.07;;;15.20;99.90;;;15.64;70.75;100439.31;4825751;29;20103;-69
2022/09/26 02:38:04;;;;;;;8.60;4.20;;;15.30;99.90;;;15.60;70.74;100429.66;4839971;29;20145;-69
2022/09/26 02:40:47;;;;;;;5.40;3.83;;;15.30;99.90;;;15.55;70.15;100419.13;4840058;29;20046;-69
2022/09/26 02:43:44;;;;;;;5.85;3.75;;;15.20;99.90;;;15.47;70.31;100417.59;4826054;29;20050;-69
2022/09/26 02:46:38;;;;;;;8.05;4.03;;;15.20;99.90;;;15.46;70.23;100410.56;4839989;29;20058;-70
2022/09/26 02:49:26;;;;;;;5.45;3.83;;;15.10;99.90;;;15.44;70.22;100404.41;4840054;29;20493;-69
2022/09/26 02:52:16;;;;;;;8.10;4.25;;;15.10;99.90;;;15.42;69.86;100404.44;4839915;29;20081;-69
2022/09/26 02:54:59;;;;;;;8.93;4.32;;;15.10;99.90;;;15.42;69.69;100388.47;4839771;29;20514;-69
2022/09/26 02:57:41;;;;;;;6.18;4.22;;;15.10;99.90;;;15.40;69.77;100384.94;4839978;29;20114;-69
2022/09/26 03:00:16;;;;;;;6.28;4.18;;;15.10;99.90;;;15.48;69.69;100371.41;4839595;29;20050;-69
2022/09/26 03:02:51;;;;;;;8.10;4.20;;;15.10;99.90;;;15.45;69.78;100371.50;4825536;29;20068;-69
2022/09/26 03:05:23;;;;;;;8.82;4.20;;;15.10;99.90;;;15.47;69.42;100356.31;4839192;29;20483;-69
2022/09/26 03:07:59;;;;;;;5.93;3.80;;;15.10;99.90;;;15.39;69.12;100356.53;4825379;29;20054;-69
2022/09/26 03:10:30;;;;;;;9.70;4.07;;;15.10;99.90;;;15.27;69.07;100332.97;4839559;29;20123;-69
2022/09/26 03:13:05;;;;;;;11.48;4.80;;;15.10;99.90;;;15.36;69.24;100340.66;4824325;29;20078;-69
2022/09/26 03:15:35;;;;;;;10.55;4.53;;;15.10;99.90;;;15.40;68.90;100342.28;4839253;29;20050;-69
2022/09/26 03:18:11;;;;;;;7.50;4.32;;;15.10;99.90;;;15.30;68.76;100333.72;4839005;29;20057;-69
2022/09/26 03:20:41;;;;;;;8.13;4.45;;;15.00;99.90;;;15.34;68.65;100330.03;4825435;29;20060;-68
2022/09/26 03:23:10;;;;;;;4.65;3.75;;;15.00;99.90;;;15.40;68.47;100312.97;4839324;29;20055;-69
2022/09/26 03:25:38;;;;;;;4.53;3.80;;;15.00;99.90;;;15.40;68.37;100323.63;4839047;29;20050;-69
2022/09/26 03:28:11;;;;;;;6.60;3.90;;;15.00;99.90;;;15.34;68.19;100305.19;4839322;29;20058;-69
2022/09/26 03:30:40;;;;;;;7.50;3.80;;;15.00;99.90;;;15.32;68.23;100299.03;4839207;29;20091;-69
2022/09/26 03:33:27;;;;;;;5.90;3.95;;;15.00;99.90;;;15.16;68.21;100271.13;4839362;29;20103;-69
2022/09/26 03:35:58;;;;;;;7.43;4.10;;;15.00;99.90;;;15.23;68.56;100289.53;4839628;29;20087;-69
2022/09/26 03:38:27;;;;;;;7.78;4.35;;;14.90;99.90;;;15.20;68.74;100275.44;4839455;29;20051;-69
2022/09/26 03:41:18;;;;;;;7.95;3.90;;;14.90;99.90;;;15.14;69.68;100281.84;4826233;29;20416;-69
2022/09/26 03:44:03;;;;;;;4.90;3.90;;;14.90;99.90;;;15.13;70.02;100266.78;4839081;29;20141;-69
2022/09/26 03:46:51;;;;;;;11.95;4.38;;;14.80;99.90;;;15.12;69.93;100259.72;4824596;29;20112;-69
2022/09/26 03:49:20;;;;;;;6.72;4.35;;;14.80;99.90;;;15.14;70.34;100265.84;4838720;29;20056;-69
2022/09/26 03:51:49;;;;;;;8.32;4.82;;;14.80;99.90;;;15.11;70.25;100257.97;4838681;29;20074;-69
2022/09/26 03:54:18;;;;;;;11.15;5.57;;;14.80;99.90;;;14.97;70.38;100246.00;4838640;29;20050;-70
2022/09/26 03:56:47;;;;;;;8.68;5.53;;;14.70;99.90;;;14.96;70.54;100245.13;4838468;29;20433;-69
2022/09/26 03:59:17;;;;;;;11.35;6.40;;;14.70;99.90;;;15.00;70.81;100241.44;4838289;29;20469;-69
2022/09/26 04:01:47;;;;;;;9.13;6.63;;;14.70;99.90;;;14.99;70.88;100237.06;4838938;29;20509;-68
2022/09/26 04:04:16;;;;;;;10.02;6.82;;;14.60;99.90;;;15.02;70.95;100220.97;4824883;29;20050;-69
2022/09/26 04:06:45;;;;;;;11.25;7.03;;;14.70;99.90;;;15.06;71.04;100216.44;4838642;29;20081;-69
2022/09/26 04:09:16;;;;;;;10.55;6.28;;;14.70;99.90;;;15.03;70.70;100216.53;4838638;29;20103;-69
2022/09/26 04:11:51;;;;;;;10.57;6.70;;;14.70;99.90;;;14.96;70.87;100212.31;4838660;29;20050;-69
2022/09/26 04:14:20;;;;;;;14.30;6.85;;;14.70;99.90;;;15.01;70.73;100202.38;4838825;29;20047;-69
2022/09/26 04:16:54;;;;;;;12.77;6.65;;;14.70;99.90;;;14.99;70.54;100193.56;4838133;29;20141;-69
2022/09/26 04:19:36;;;;;;;11.45;6.90;;;14.70;99.90;;;15.02;70.71;100190.81;4838542;29;20054;-69
2022/09/26 04:22:06;;;;;;;10.27;6.43;;;14.70;99.90;;;14.93;70.48;100172.47;4838425;29;20194;-69
2022/09/26 04:24:36;;;;;;;11.77;6.77;;;14.70;99.90;;;15.02;70.42;100175.69;4823325;29;20104;-69
2022/09/26 04:27:07;;;;;;;;;;;14.70;99.90;;;14.90;70.48;100152.16;4838861;29;20364;-69
2022/09/26 04:29:36;;;;;;;8.73;4.60;;;14.70;99.90;;;14.88;70.87;100159.31;4838396;29;19925;-69
2022/09/26 04:32:11;;;;;;;9.65;4.90;;;14.60;99.90;;;14.80;71.23;100152.50;4838151;29;20058;-69
2022/09/26 04:35:06;;;;;;;8.75;4.50;;;14.50;99.90;;;14.81;72.02;100136.47;4824134;29;20086;-69
2022/09/26 04:37:35;;;;;;;11.57;5.63;;;14.50;99.90;;;14.77;72.12;100141.97;4824301;29;20074;-69
2022/09/26 04:40:08;;;;;;;14.02;6.55;;;14.40;99.90;;;14.72;72.55;100120.81;4838210;29;20392;-70
2022/09/26 04:42:40;;;;;;;10.05;6.78;;;14.40;99.90;;;14.73;73.01;100127.84;4838231;29;20098;-69
2022/09/26 04:45:10;;;;;;;13.20;7.32;;;14.40;99.90;;;14.70;73.36;100121.78;4838142;29;20047;-69
2022/09/26 04:47:38;;;;;;;12.50;6.90;;;14.40;99.90;;;14.64;73.31;100124.63;4824263;29;20050;-69
2022/09/26 04:50:25;;;;;;;12.38;6.50;;;14.30;99.90;;;14.65;73.82;100107.75;4824547;29;20050;-69
2022/09/26 04:53:06;;;;;;;10.05;6.05;;;14.30;99.90;;;14.55;73.87;100106.31;4837968;29;20054;-69
2022/09/26 04:55:44;;;;;;;8.65;6.22;;;14.30;99.90;;;14.51;74.25;100097.56;4838155;29;20058;-69
2022/09/26 04:58:15;;;;;;;11.57;6.15;;;14.30;99.90;;;14.60;74.17;100089.28;4822910;29;20115;-69
2022/09/26 05:00:46;;;;;;;10.70;5.97;;;14.30;99.90;;;14.64;74.52;100098.91;4824098;29;20068;-69
2022/09/26 05:03:18;;;;;;;12.27;5.95;;;14.30;99.90;;;14.61;74.43;100088.38;4837972;29;20145;-69
2022/09/26 05:05:47;;;;;;;15.35;6.68;;;14.30;99.90;;;14.65;74.67;100091.78;4837826;29;20149;-69
2022/09/26 05:08:16;;;;;;;12.68;5.57;;;14.30;99.90;;;14.56;74.35;100071.66;4837855;29;20454;-70
2022/09/26 05:10:53;;;;;;;14.02;6.00;;;14.30;99.90;;;14.58;74.96;100093.78;4822738;29;20400;-69
2022/09/26 05:13:22;;;;;;;9.18;5.50;;;14.30;99.90;;;14.53;75.04;100066.44;4838034;29;20615;-69
2022/09/26 05:15:53;;;;;;;10.48;5.50;;;14.30;99.90;;;14.64;74.91;100072.28;4823627;29;20145;-69
2022/09/26 05:18:23;;;;;;;9.05;5.78;;;14.30;99.90;;;14.68;74.91;100057.94;4837900;29;20141;-69
2022/09/26 05:20:52;;;;;;;14.45;5.38;;;14.40;99.90;;;14.63;74.86;100054.59;4837384;29;20094;-70
2022/09/26 05:26:20;;;;;;;9.43;5.32;;;14.30;99.90;;;14.45;75.54;100036.56;4837510;29;20054;-69
2022/09/26 05:28:51;;;;;;;10.45;5.18;;;14.20;99.90;;;14.45;75.73;100028.59;4840731;29;20062;-69
2022/09/26 05:31:27;;;;;;;9.52;5.05;;;14.20;99.90;;;14.46;76.14;100027.66;4841628;29;20524;-68
2022/09/26 05:33:56;;;;;;;6.85;5.03;;;14.10;99.90;;;14.39;75.84;99996.84;4841842;29;20059;-69
2022/09/26 05:36:25;;;;;;;6.90;4.75;;;14.20;99.90;;;14.47;75.96;100000.13;4841607;29;20077;-69
2022/09/26 05:38:54;;;;;;;7.90;4.97;;;14.20;99.90;;;14.43;75.75;100001.16;4841160;29;20562;-69
2022/09/26 05:41:22;;;;;;;10.77;5.28;;;14.20;99.90;;;14.38;76.12;100006.63;4841006;29;20077;-69
2022/09/26 05:43:51;;;;;;;8.98;5.00;;;14.10;99.90;;;14.36;76.25;99994.31;4841070;29;20144;-69
2022/09/26 05:46:20;;;;;;;8.25;4.65;;;14.10;99.90;;;14.31;76.50;99990.91;4840846;29;20062;-68
2022/09/26 05:48:51;;;;;;;6.97;4.38;;;14.10;99.90;;;14.28;76.36;99975.94;4840976;29;20413;-69
2022/09/26 05:51:22;;;;;;;;;;;14.00;99.90;;;14.34;76.49;99993.50;4841247;29;20064;-69
2022/09/26 05:53:50;;;;;;;9.00;4.60;;;14.00;99.90;;;14.36;76.04;99996.97;4840755;29;19932;-68
2022/09/26 05:56:23;;;;;;;7.60;4.45;;;14.10;99.90;;;13.72;76.34;99883.88;4825153;29;20062;-69
2022/09/26 05:59:10;;;;;;;9.98;4.60;;;14.10;99.90;;;14.35;76.56;99973.94;4826169;29;20061;-69
2022/09/26 06:01:57;;;;;;;10.20;5.28;;;14.10;99.90;;;14.29;76.93;99974.13;4826919;29;20138;-70
2022/09/26 06:04:58;;;;;;;11.52;5.43;;;14.10;99.90;;;14.28;77.21;99959.13;4840800;29;20055;-69
2022/09/26 06:07:49;;;;;;;13.10;5.15;;;14.00;99.90;;;14.26;77.88;99958.25;4827802;29;20145;-70
2022/09/26 06:10:34;;;;;;;9.68;5.10;;;14.00;99.90;;;14.28;77.88;99944.03;4840572;29;20111;-70
2022/09/26 06:13:04;;;;;;;12.40;5.68;;;14.00;99.90;;;14.25;78.37;99957.38;4826499;29;20121;-69
2022/09/26 06:15:38;;;;;;;11.25;5.03;;;14.00;99.90;;;14.30;78.17;99943.97;4840509;29;20441;-69
2022/09/26 06:18:07;;;;;;;11.80;5.43;;;14.00;99.90;;;14.36;78.30;99938.44;4840231;29;20085;-69
2022/09/26 06:20:35;;;;;;;12.32;5.18;;;14.10;99.90;;;14.41;78.21;99933.81;4840718;29;20055;-69
2022/09/26 06:23:04;;;;;;;14.52;5.78;;;14.10;99.90;;;14.42;78.52;99930.22;4840336;29;20579;-69
2022/09/26 06:25:34;;;;;;;14.23;6.22;;;14.10;99.90;;;14.50;78.27;99914.00;4840452;29;20488;-70
2022/09/26 06:28:05;;;;;;;12.40;5.63;;;14.20;99.90;;;14.53;78.50;99920.09;4840221;29;20149;-70
2022/09/26 06:30:34;;;;;;;12.02;5.18;;;14.20;99.90;;;14.46;78.25;99891.94;4840124;29;20059;-70
2022/09/26 06:33:12;;;;;;;9.32;4.65;;;14.20;99.90;;;14.54;78.04;99905.00;4839849;29;20081;-69
2022/09/26 06:36:00;;;;;;;11.55;5.10;;;14.20;99.90;;;14.56;78.12;99889.81;4839972;29;20050;-69
2022/09/26 06:38:37;;;;;;;9.07;5.80;;;14.20;99.90;;;14.50;78.08;99880.25;4825356;29;20043;-69
2022/09/26 06:41:15;;;;;;;14.82;5.53;;;14.30;99.90;;;14.58;77.90;99887.97;4824826;29;20050;-69
2022/09/26 06:43:45;;;;;;;9.25;5.22;;;14.30;99.90;;;14.56;77.95;99863.19;4839758;29;20395;-68
2022/09/26 06:46:31;;;;;;;12.65;5.35;;;14.30;99.90;;;14.57;78.45;99872.94;4825701;29;20058;-69
2022/09/26 06:49:12;;;;;;;9.55;5.30;;;14.20;99.90;;;14.57;78.41;99857.84;4840176;29;20057;-69
2022/09/26 06:51:49;;;;;;;9.48;4.57;;;14.20;99.90;;;14.59;78.33;99856.00;4840239;29;20085;-69
2022/09/26 06:54:18;;;;;;;10.93;5.03;;;14.30;99.90;;;14.53;78.24;99840.25;4840068;29;20057;-69
2022/09/26 06:56:47;;;;;;;9.93;5.10;;;14.20;99.90;;;14.55;78.56;99853.50;4839876;29;20096;-69
2022/09/26 06:59:18;;;;;;;9.30;5.22;;;14.20;99.90;;;14.57;78.86;99855.19;4825935;29;20099;-69
2022/09/26 07:01:53;;;;;;;11.13;5.30;;;14.30;99.90;;;14.62;78.46;99817.75;4840075;29;20455;-69
2022/09/26 07:04:54;;;;;;;10.93;5.60;;;14.30;99.90;;;14.45;78.96;99824.59;4840074;29;20110;-69
2022/09/26 07:07:30;;;;;;;9.45;5.10;;;14.30;99.90;;;14.68;78.70;99829.03;4824616;29;20073;-70
2022/09/26 07:09:58;;;;;;;9.50;5.15;;;14.30;99.90;;;14.69;78.76;99827.25;4839766;29;20046;-69
2022/09/26 07:12:42;;;;;;;14.63;5.40;;;14.40;99.90;;;14.67;78.87;99818.44;4839678;29;20053;-69
2022/09/26 07:15:16;;;;;;;12.70;4.90;;;14.40;99.90;;;14.67;78.76;99824.66;4839498;29;20058;-68
2022/09/26 07:17:46;;;;;;;12.43;4.60;;;14.30;99.90;;;14.59;79.10;99821.41;4825788;29;20082;-69
2022/09/26 07:20:38;;;;;;;13.25;4.95;;;14.30;99.90;;;14.66;79.48;99809.59;4825636;29;20081;-69
2022/09/26 07:23:15;;;;;;;11.38;4.50;;;14.40;99.90;;;14.62;79.38;99794.66;4839493;29;20058;-69
2022/09/26 07:25:45;;;;;;;9.75;4.55;;;14.30;99.90;;;14.58;79.12;99793.03;4839442;29;20050;-69
2022/09/26 07:28:14;;;;;;;5.25;4.30;;;14.30;99.90;;;14.57;79.15;99793.97;4825480;29;20493;-69
2022/09/26 07:30:55;;;;;;;8.18;5.20;;;14.30;99.90;;;14.57;79.09;99801.97;4839571;29;20078;-69
2022/09/26 07:33:53;;;;;;;9.50;4.63;;;14.30;99.90;;;14.51;79.18;99806.63;4823274;29;20062;-69
2022/09/26 07:36:22;;;;;;;9.73;4.50;;;14.20;99.90;;;14.50;79.40;99802.25;4839452;29;20169;-71
2022/09/26 07:38:54;;;;;;;6.88;4.43;;;14.20;99.90;;;14.52;79.61;99801.25;4839112;29;20053;-70
2022/09/26 07:41:22;;;;;;;15.93;4.80;;;14.20;99.90;;;14.50;79.58;99797.78;4825455;29;20520;-71
2022/09/26 07:43:51;;;;;;;10.52;5.07;;;14.20;99.90;;;14.45;79.74;99797.09;4839284;29;20038;-71
2022/09/26 07:52:31;;;;;;;11.40;5.18;;;14.30;99.90;;;14.52;81.36;99787.94;4824422;29;20048;-70
2022/09/26 07:55:28;;;;;;;12.48;4.90;;;14.30;99.90;;;14.59;82.05;99799.25;4823430;29;20061;-70
2022/09/26 07:58:11;;;;;;;12.35;4.78;;;14.30;99.90;;;14.62;82.07;99791.13;4824750;29;20481;-70
2022/09/26 08:00:58;;;;;;;9.65;5.15;;;14.30;99.90;;;14.44;83.04;99771.41;4825048;29;20160;-69
2022/09/26 08:03:48;;;;;;;6.70;5.00;;;14.20;99.90;;;14.57;83.63;99780.69;4823504;29;20062;-71
2022/09/26 08:06:26;;;;;;;16.52;5.20;;;14.30;99.90;;;14.39;83.85;99757.41;4838997;29;20115;-71
2022/09/26 08:08:57;;;;;;;13.48;5.78;;;14.30;99.90;;;14.55;84.44;99779.88;4823780;29;20076;-70
2022/09/26 08:11:44;;;;;;;10.95;5.97;;;14.20;99.90;;;14.48;84.89;99788.13;4824501;29;20057;-71
2022/09/26 08:14:39;;;;;;;14.55;5.45;;;14.20;99.90;;;14.44;85.03;99772.28;4838624;29;20416;-70
2022/09/26 08:17:21;;;;;;;11.75;5.07;;;14.20;99.90;;;14.45;85.45;99768.69;4837960;29;20458;-70
2022/09/26 08:19:50;;;;;;;13.70;5.40;;;14.10;99.90;;;14.45;85.79;99762.50;4838219;29;20062;-70
2022/09/26 08:22:19;;;;;;;12.77;5.57;;;14.10;99.90;;;14.43;86.16;99780.31;4838264;29;20082;-70
2022/09/26 08:24:52;;;;;;;10.30;5.95;;;14.10;99.90;;;14.42;86.85;99755.50;4838403;29;20060;-69
2022/09/26 08:27:43;;;;;;;11.68;5.65;;;14.10;99.90;;;14.46;87.22;99757.13;4824078;29;20066;-68
2022/09/26 08:30:13;;;;;;;12.90;6.63;;;14.10;99.90;;;14.34;87.63;99743.44;4838575;29;20054;-68
2022/09/26 08:32:43;;;;;;;15.10;6.00;;;14.10;99.90;;;14.29;88.02;99709.00;4838324;29;20054;-69
2022/09/26 08:35:13;;;;;;;24.88;6.25;;;14.20;99.90;;;14.45;88.49;99734.13;4823437;29;20054;-70
2022/09/26 08:38:09;;;;;;;12.07;6.25;;;14.10;99.90;;;14.45;89.16;99731.47;4824776;29;20094;-69
2022/09/26 08:40:51;;;;;;;11.90;5.80;;;14.10;99.90;;;14.44;89.33;99728.81;4824636;29;20054;-69
2022/09/26 08:43:56;;;;;;;11.07;6.38;;;14.20;99.90;;;14.41;90.03;99708.56;4824561;29;20054;-69
2022/09/26 08:47:01;;;;;;;13.50;6.13;;;14.10;99.90;;;14.44;90.36;99734.16;4823355;29;20493;-68
2022/09/26 08:49:49;;;;;;;10.20;5.90;;;14.10;99.90;;;14.34;90.97;99714.16;4824620;29;20416;-70
2022/09/26 08:52:30;;;;;;;12.18;5.55;;;14.10;99.90;;;14.28;91.12;99707.28;4838136;29;20493;-69
2022/09/26 08:55:04;;;;;;;13.80;6.13;;;14.00;99.90;;;14.31;91.71;99700.97;4824629;29;20043;-69
2022/09/26 08:57:39;;;;;;;15.00;6.05;;;14.00;99.90;;;14.34;91.68;99695.56;4838020;29;20141;-70
2022/09/26 09:00:18;;;;;;;10.05;5.95;;;14.00;99.90;;;14.32;92.39;99694.75;4824131;29;20557;-69
2022/09/26 09:03:05;;;;;;;9.32;6.05;;;14.00;99.90;;;14.43;92.51;99700.50;4840265;29;20050;-69
2022/09/26 09:05:39;;;;;;;9.38;6.05;;;14.10;99.90;;;14.40;92.70;99717.44;4841777;29;20054;-69
2022/09/26 09:08:16;;;;;;;15.85;6.32;;;14.10;99.90;;;14.45;92.86;99704.84;4841780;29;20046;-70
2022/09/26 09:11:12;;;;;;;8.95;6.30;;;14.20;99.90;;;14.55;93.21;99700.03;4841893;29;20046;-69
2022/09/26 09:13:57;;;;;;;9.50;5.40;;;14.20;99.90;;;14.42;93.21;99689.00;4827889;29;20051;-69
2022/09/26 09:17:15;;;;;;;11.80;6.53;;;14.20;99.90;;;14.41;93.33;99687.28;4827088;29;20050;-69
2022/09/26 09:20:04;;;;;;;12.13;5.60;;;14.20;99.90;;;14.37;93.73;99690.97;4841675;29;20066;-69
2022/09/26 09:23:17;;;;;;;10.55;5.88;;;14.10;99.90;;;14.38;94.05;99686.53;4841518;29;20050;-68
2022/09/26 09:26:05;;;;;;;9.93;6.18;;;14.10;99.90;;;14.48;94.41;99677.22;4841606;29;20054;-68
2022/09/26 09:29:37;;;;;;;8.75;5.45;;;14.10;99.90;;;14.28;94.94;99655.88;4841074;29;20077;-68
2022/09/26 09:32:32;;;;;;;10.13;5.72;;;14.00;99.90;;;14.30;95.05;99670.00;4826932;29;20222;-68
2022/09/26 09:35:15;;;;;;;12.00;5.95;;;14.00;99.90;;;14.33;95.56;99684.03;4841307;29;20538;-68
2022/09/26 09:38:29;;;;;;;10.63;6.32;;;14.00;99.90;;;14.31;95.87;99671.72;4821268;29;20078;-69
2022/09/26 09:41:25;;;;;;;16.98;5.47;;;14.00;99.90;;;14.31;95.92;99674.38;4827171;29;20429;-69
2022/09/26 09:43:56;;;;;;;11.85;6.20;;;14.00;99.90;;;14.36;96.58;99669.75;4827651;29;20096;-69
2022/09/26 09:46:28;;;;;;;7.03;5.78;;;14.10;99.90;;;14.37;96.35;99668.81;4827347;29;20137;-69
2022/09/26 09:49:14;;;;;;;9.82;5.53;;;14.10;99.90;;;14.40;96.98;99679.34;4841130;29;20066;-69
2022/09/26 09:51:59;;;;;;;7.60;6.35;;;14.10;99.90;;;14.40;97.04;99658.06;4841349;29;20082;-70
2022/09/26 09:54:58;;;;;;;9.50;5.95;;;14.10;99.90;;;14.39;97.16;99653.66;4841421;29;20054;-69
2022/09/26 09:57:43;;;;;;;7.35;5.80;;;14.10;99.90;;;14.46;97.53;99679.09;4841296;29;20557;-69
2022/09/26 10:00:16;;;;;;;7.63;5.28;;;14.10;99.90;;;14.49;97.40;99657.69;4841042;29;20051;-68
2022/09/26 10:03:01;;;;;;;7.95;5.63;;;14.20;99.90;;;14.44;97.76;99657.88;4826947;29;20046;-68
2022/09/26 10:05:42;;;;;;;11.00;5.85;;;14.20;99.90;;;14.56;97.67;99658.31;4840937;29;20126;-68
2022/09/26 10:08:21;;;;;;;10.02;6.07;;;14.20;99.90;;;13.89;97.87;99543.94;4840815;29;20054;-68
2022/09/26 10:11:21;;;;;;;9.82;7.07;;;14.30;99.90;;;14.35;97.68;99660.91;4826734;29;20048;-68
2022/09/26 10:14:01;;;;;;;7.72;6.63;;;14.20;99.90;;;14.52;97.62;99656.72;4825644;29;20062;-68
2022/09/26 10:16:36;;;;;;;9.23;6.03;;;14.20;99.90;;;14.71;97.39;99657.72;4826720;29;20058;-68
2022/09/26 10:19:09;;;;;;;9.43;6.07;;;14.30;99.90;;;14.73;97.38;99651.38;4840771;29;20481;-68
2022/09/26 10:21:42;;;;;;;7.47;5.47;;;14.40;99.90;;;14.12;96.74;99541.22;4840561;29;20054;-68
2022/09/26 10:24:24;;;;;;;5.97;5.15;;;14.40;99.90;;;14.73;96.65;99638.06;4826565;29;20380;-68
2022/09/26 10:27:15;;;;;;;6.35;4.93;;;14.50;99.90;;;14.77;96.65;99641.50;4840728;29;20604;-68
2022/09/26 10:29:46;;;;;;;6.40;5.40;;;14.40;99.90;;;14.63;96.70;99638.53;4840600;29;20058;-68
2022/09/26 10:32:17;;;;;;;5.55;4.88;;;14.40;99.90;;;14.67;97.20;99649.00;4840076;29;20051;-68
2022/09/26 10:35:06;;;;;;;5.65;5.05;;;14.30;99.90;;;14.73;97.47;99635.41;4840731;29;20083;-67
2022/09/26 10:37:38;;;;;;;8.68;5.78;;;14.40;99.90;;;14.77;97.54;99637.00;4840872;29;20065;-68
2022/09/26 10:40:44;;;;;;;6.13;5.53;;;14.40;99.90;;;14.83;97.41;99633.22;4840362;29;20100;-67
2022/09/26 10:43:37;;;;;;;5.05;4.55;;;14.40;99.90;;;14.83;97.29;99642.09;4824933;29;20055;-68
2022/09/26 10:46:16;;;;;;;4.93;4.43;;;14.50;99.90;;;14.90;97.05;99635.59;4840096;29;20497;-69
2022/09/26 10:49:15;;;;;;;5.32;4.75;;;14.60;99.90;;;14.99;96.79;99632.53;4825820;29;20070;-68
2022/09/26 10:52:22;;;;;;;5.50;4.63;;;14.60;99.90;;;15.02;97.03;99631.56;4826237;29;20054;-68
2022/09/26 10:54:58;;;;;;;5.38;4.50;;;14.70;99.90;;;15.00;96.85;99634.25;4840411;29;20413;-69
2022/09/26 10:57:33;;;;;;;4.38;3.97;;;14.70;99.90;;;14.98;96.91;99641.44;4840216;29;20107;-68
2022/09/26 11:00:07;;;;;;;4.78;4.32;;;14.60;99.90;;;14.99;97.05;99658.28;4839621;29;20157;-68
2022/09/26 11:02:36;;;;;;;4.30;3.97;;;14.70;99.90;;;15.13;97.02;99632.84;4824522;29;20062;-69
2022/09/26 11:08:28;;;;;;;5.80;5.30;;;14.80;99.90;;;15.22;96.70;99628.88;4827969;29;20493;-68
2022/09/26 11:11:21;;;;;;;5.32;4.65;;;14.80;99.90;;;15.28;96.87;99637.50;4822644;29;20058;-68